Time;durP1;ratioP1;P1;durP2;ratioP2;P2;SDS_P1;SDS_P2;PMS_P1;PMS_P2;Temp;Humidity;BMP_temperature;BMP_pressure;BME280_temperature;BME280_humidity;BME280_pressure;Samples;Min_cycle;Max_cycle;Signal;HPM_P1;HPM_P2
2024/03/21 00:00:10;;;;;;;30.30;28.02;;;;;;;-0.14;100.00;101498.34;5087080;28;20062;-70
2024/03/21 00:02:46;;;;;;;31.27;29.38;;;;;;;-0.43;100.00;101500.56;5086014;28;20129;-71
2024/03/21 00:05:14;;;;;;;32.28;30.48;;;;;;;-0.50;100.00;101502.78;5089088;28;20052;-70
2024/03/21 00:07:45;;;;;;;34.35;32.63;;;;;;;-0.47;100.00;101493.91;5086124;28;20439;-72
2024/03/21 00:10:11;;;;;;;31.60;30.00;;;;;;;-0.61;100.00;101487.09;5088669;28;20058;-70
2024/03/21 00:12:40;;;;;;;29.65;28.05;;;;;;;-0.64;100.00;101492.53;5086087;28;20426;-70
2024/03/21 00:15:07;;;;;;;31.63;30.02;;;;;;;-0.79;100.00;101489.28;5086729;28;20113;-73
2024/03/21 00:17:34;;;;;;;32.15;30.45;;;;;;;-0.90;100.00;101488.44;5073501;28;20056;-73
2024/03/21 00:20:03;;;;;;;30.48;28.88;;;;;;;-0.59;100.00;101482.59;5085402;28;20040;-72
2024/03/21 00:22:31;;;;;;;30.55;28.92;;;;;;;-0.67;100.00;101473.69;5085181;28;20483;-72
2024/03/21 00:24:57;;;;;;;32.22;30.25;;;;;;;-0.82;100.00;101478.25;5089175;28;20718;-73
2024/03/21 00:27:27;;;;;;;33.20;31.40;;;;;;;-1.02;100.00;101477.13;5088048;28;20051;-72
2024/03/21 00:29:56;;;;;;;34.80;32.90;;;;;;;-0.77;100.00;101473.53;5088007;28;20078;-71
2024/03/21 00:32:23;;;;;;;31.50;29.80;;;;;;;-1.07;100.00;101467.03;5092123;28;20121;-70
2024/03/21 00:34:50;;;;;;;30.67;28.85;;;;;;;-0.95;100.00;101470.50;5088227;28;20052;-72
2024/03/21 00:37:18;;;;;;;30.67;29.08;;;;;;;-1.07;100.00;101461.81;5091059;28;20747;-71
2024/03/21 00:39:45;;;;;;;31.08;29.45;;;;;;;-0.91;100.00;101451.06;5095003;28;20126;-71
2024/03/21 00:42:12;;;;;;;31.50;29.80;;;;;;;-0.86;100.00;101456.78;5086975;28;20482;-72
2024/03/21 00:44:38;;;;;;;30.73;29.08;;;;;;;-0.88;100.00;101450.84;5090318;28;20064;-74
2024/03/21 00:47:07;;;;;;;29.88;28.17;;;;;;;-0.74;100.00;101453.28;5089610;28;20419;-72
2024/03/21 00:49:33;;;;;;;29.30;27.70;;;;;;;-0.76;100.00;101443.88;5081398;28;20048;-71
2024/03/21 00:52:01;;;;;;;30.48;28.88;;;;;;;-0.84;100.00;101447.09;5091360;28;20736;-73
2024/03/21 00:54:27;;;;;;;29.50;27.75;;;;;;;-0.71;100.00;101439.16;5089464;28;20494;-73
2024/03/21 00:56:54;;;;;;;29.45;27.85;;;;;;;-0.31;100.00;101450.03;5091427;28;20044;-72
2024/03/21 00:59:21;;;;;;;29.95;28.40;;;;;;;-0.04;100.00;101451.47;5085614;28;20052;-72
2024/03/21 01:01:49;;;;;;;30.13;28.63;;;;;;;0.34;100.00;101443.25;5084400;28;20059;-72
2024/03/21 01:04:17;;;;;;;30.42;28.92;;;;;;;0.28;100.00;101440.28;5088690;28;20052;-72
2024/03/21 01:06:45;;;;;;;28.23;26.80;;;;;;;-0.46;100.00;101433.75;5086111;28;20584;-72
2024/03/21 01:09:11;;;;;;;28.83;27.42;;;;;;;-0.43;100.00;101430.06;5089917;28;20054;-72
2024/03/21 01:11:39;;;;;;;28.98;27.48;;;;;;;-0.61;100.00;101432.31;5088645;28;20137;-72
2024/03/21 01:14:05;;;;;;;32.15;30.45;;;;;;;-0.74;100.00;101437.63;5091275;28;20055;-73
2024/03/21 01:16:33;;;;;;;32.85;31.15;;;;;;;-0.80;100.00;101450.28;5085772;28;20049;-72
2024/03/21 01:18:59;;;;;;;30.63;29.13;;;;;;;-0.49;100.00;101451.44;5089087;28;20651;-73
2024/03/21 01:21:29;;;;;;;27.58;26.20;;;;;;;-0.08;100.00;101458.72;5089603;28;20052;-72
2024/03/21 01:23:55;;;;;;;33.25;31.40;;;;;;;0.13;100.00;101466.66;5086170;28;20501;-71
2024/03/21 01:26:22;;;;;;;31.20;29.60;;;;;;;0.31;100.00;101472.25;5081683;28;20048;-73
2024/03/21 01:28:48;;;;;;;31.67;29.98;;;;;;;0.43;100.00;101489.56;5079502;28;20056;-74
2024/03/21 01:31:16;;;;;;;35.92;33.83;;;;;;;0.68;100.00;101501.50;5090500;28;20140;-74
2024/03/21 01:33:43;;;;;;;30.98;29.45;;;;;;;1.36;100.00;101496.88;5089341;28;20483;-73
2024/03/21 01:36:11;;;;;;;32.25;30.65;;;;;;;1.67;100.00;101496.94;5087206;28;20850;-73
2024/03/21 01:38:39;;;;;;;32.80;31.10;;;;;;;2.04;100.00;101499.06;5079820;28;20055;-73
2024/03/21 01:41:06;;;;;;;33.45;31.75;;;;;;;2.10;100.00;101508.19;5089307;28;21719;-73
2024/03/21 01:43:34;;;;;;;32.10;30.40;;;;;;;1.94;100.00;101496.41;5088851;28;20065;-73
2024/03/21 01:46:20;;;;;;;33.80;32.10;;;;;;;1.78;100.00;101485.53;5087784;28;20097;-72
2024/03/21 01:48:48;;;;;;;30.90;29.30;;;;;;;1.66;100.00;101471.69;5090676;28;20080;-73
2024/03/21 01:51:17;;;;;;;33.38;31.38;;;;;;;1.78;100.00;101468.03;5089586;28;20072;-73
2024/03/21 01:53:47;;;;;;;34.08;32.38;;;;;;;1.89;100.00;101463.69;5090659;28;20097;-73
2024/03/21 01:56:14;;;;;;;34.67;32.97;;;;;;;1.35;100.00;101453.31;5087270;28;20797;-73
2024/03/21 01:58:40;;;;;;;36.65;34.85;;;;;;;1.12;100.00;101450.00;5089089;28;20101;-73
2024/03/21 02:01:20;;;;;;;38.70;36.50;;;;;;;1.67;100.00;101455.03;5082521;28;20047;-73
2024/03/21 02:03:59;;;;;;;36.58;34.67;;;;;;;1.67;100.00;101462.91;5081161;28;20129;-73
2024/03/21 02:06:28;;;;;;;34.15;32.45;;;;;;;1.60;100.00;101473.06;5087424;28;20070;-73
2024/03/21 02:08:58;;;;;;;34.55;32.75;;;;;;;1.66;100.00;101489.19;5086753;28;20052;-72
2024/03/21 02:11:26;;;;;;;35.92;34.00;;;;;;;1.46;100.00;101486.47;5089302;28;20087;-73
2024/03/21 02:13:54;;;;;;;40.85;37.03;;;;;;;1.55;100.00;101482.25;5086910;28;20567;-73
2024/03/21 02:16:22;;;;;;;36.80;34.90;;;;;;;1.49;100.00;101474.91;5085690;28;20681;-72
2024/03/21 02:18:49;;;;;;;35.08;33.15;;;;;;;1.64;100.00;101470.19;5088393;28;20481;-71
2024/03/21 02:24:02;;;;;;;37.35;35.55;;;;;;;1.66;100.00;101479.56;5089549;28;20043;-71
2024/03/21 02:26:33;;;;;;;37.40;35.50;;;;;;;1.67;100.00;101493.50;5087686;28;20422;-71
2024/03/21 02:29:02;;;;;;;38.92;36.83;;;;;;;1.53;100.00;101487.59;5085870;28;20048;-71
2024/03/21 02:31:28;;;;;;;38.15;36.25;;;;;;;1.70;100.00;101495.88;5085834;28;20047;-71
2024/03/21 02:33:58;;;;;;;37.70;35.90;;;;;;;1.85;100.00;101486.72;5087730;28;20055;-71
2024/03/21 02:36:27;;;;;;;36.63;34.83;;;;;;;1.78;100.00;101489.00;5089100;28;20501;-72
2024/03/21 02:38:57;;;;;;;34.05;32.10;;;;;;;1.91;100.00;101494.03;5088284;28;20060;-71
2024/03/21 02:41:26;;;;;;;34.58;32.70;;;;;;;1.85;100.00;101494.56;5079673;28;20492;-73
2024/03/21 02:43:53;;;;;;;31.88;30.13;;;;;;;1.89;100.00;101495.94;5084234;28;20463;-71
2024/03/21 02:46:19;;;;;;;33.00;31.35;;;;;;;1.79;100.00;101495.91;5087665;28;20089;-71
2024/03/21 02:48:46;;;;;;;32.80;31.00;;;;;;;1.84;100.00;101491.09;5089690;28;20050;-72
2024/03/21 02:51:12;;;;;;;29.60;28.10;;;;;;;1.56;100.00;101499.63;5089883;28;20522;-72
2024/03/21 02:53:39;;;;;;;31.02;29.35;;;;;;;1.55;100.00;101513.69;5088290;28;20048;-70
2024/03/21 02:56:05;;;;;;;30.80;29.20;;;;;;;1.53;100.00;101505.13;5089239;28;20133;-72
2024/03/21 02:58:34;;;;;;;30.48;28.98;;;;;;;1.46;100.00;101517.06;5088323;28;20098;-70
2024/03/21 03:01:00;;;;;;;30.88;29.33;;;;;;;1.25;100.00;101536.19;5086326;28;20065;-72
2024/03/21 03:03:28;;;;;;;29.02;27.58;;;;;;;1.38;100.00;101541.25;5082805;28;20475;-72
2024/03/21 03:05:54;;;;;;;28.30;27.00;;;;;;;1.06;100.00;101533.38;5083706;28;20045;-73
2024/03/21 03:08:23;;;;;;;31.95;30.45;;;;;;;1.05;100.00;101544.81;5087129;28;20493;-72
2024/03/21 03:10:53;;;;;;;34.17;32.10;;;;;;;0.90;100.00;101539.03;5088727;28;20780;-72
2024/03/21 03:13:20;;;;;;;29.92;28.23;;;;;;;0.79;100.00;101537.28;5088368;28;20044;-73
2024/03/21 03:15:47;;;;;;;30.65;29.13;;;;;;;0.85;100.00;101531.56;5087729;28;20048;-73
2024/03/21 03:18:14;;;;;;;28.25;26.77;;;;;;;0.67;100.00;101528.63;5087284;28;20139;-73
2024/03/21 03:20:40;;;;;;;38.35;36.15;;;;;;;0.81;100.00;101535.34;5085194;28;20500;-72
2024/03/21 03:23:09;;;;;;;35.95;33.65;;;;;;;0.79;100.00;101523.38;5090027;28;20101;-72
2024/03/21 03:25:39;;;;;;;30.83;29.23;;;;;;;0.65;100.00;101517.44;5086708;28;20083;-72
2024/03/21 03:28:06;;;;;;;34.45;32.65;;;;;;;0.66;100.00;101526.94;5086332;28;20125;-74
2024/03/21 03:30:32;;;;;;;33.58;31.77;;;;;;;0.88;100.00;101522.66;5084020;28;20454;-72
2024/03/21 03:35:33;;;;;;;36.13;34.03;;;;;;;0.88;100.00;101520.03;5088996;28;20135;-72
2024/03/21 03:35:47;;;;;;;36.00;33.90;;;;;;;0.68;100.00;101532.06;5083110;28;20044;-71
2024/03/21 03:38:16;;;;;;;33.17;31.35;;;;;;;0.76;100.00;101521.84;5085914;28;20048;-70
2024/03/21 03:40:43;;;;;;;33.45;31.50;;;;;;;0.81;100.00;101524.91;5087728;28;20127;-71
2024/03/21 03:43:10;;;;;;;34.80;32.85;;;;;;;0.84;100.00;101529.06;5087113;28;20047;-71
2024/03/21 03:45:37;;;;;;;35.65;33.63;;;;;;;0.83;100.00;101532.63;5087287;28;20120;-70
2024/03/21 03:48:06;;;;;;;38.80;36.08;;;;;;;0.59;100.00;101530.19;5087749;28;20519;-70
2024/03/21 03:50:33;;;;;;;34.97;32.95;;;;;;;0.66;100.00;101531.34;5086339;28;20048;-70
2024/03/21 03:53:00;;;;;;;35.90;33.63;;;;;;;0.69;100.00;101552.03;5085535;28;20862;-71
2024/03/21 03:55:28;;;;;;;35.05;33.05;;;;;;;0.67;100.00;101557.38;5085342;28;20056;-70
2024/03/21 03:57:56;;;;;;;37.60;34.60;;;;;;;0.60;100.00;101561.41;5087835;28;20492;-70
2024/03/21 04:00:22;;;;;;;32.22;30.42;;;;;;;0.49;100.00;101565.84;5085941;28;20129;-70
2024/03/21 04:02:49;;;;;;;32.33;30.52;;;;;;;0.64;100.00;101564.66;5088536;28;20043;-74
2024/03/21 04:05:17;;;;;;;31.73;29.83;;;;;;;0.02;100.00;101567.72;5093278;28;20108;-73
2024/03/21 04:07:46;;;;;;;33.58;31.58;;;;;;;0.28;100.00;101560.50;5089238;28;20097;-73
2024/03/21 04:10:13;;;;;;;30.10;28.40;;;;;;;0.11;100.00;101562.59;5087247;28;20056;-73
2024/03/21 04:12:41;;;;;;;30.50;28.60;;;;;;;0.15;100.00;101574.50;5088398;28;20629;-73
2024/03/21 04:15:07;;;;;;;33.45;31.45;;;;;;;0.36;100.00;101572.00;5086541;28;20036;-72
2024/03/21 04:17:35;;;;;;;31.40;29.70;;;;;;;0.36;100.00;101560.72;5088129;28;20500;-73
2024/03/21 04:20:02;;;;;;;30.65;29.05;;;;;;;0.19;100.00;101577.72;5087277;28;20101;-73
2024/03/21 04:22:32;;;;;;;30.40;28.70;;;;;;;0.15;100.00;101576.25;5077684;28;20055;-72
2024/03/21 04:24:58;;;;;;;35.55;33.35;;;;;;;0.17;100.00;101574.38;5086630;28;20044;-73
2024/03/21 04:27:25;;;;;;;32.40;30.60;;;;;;;0.21;100.00;101566.19;5082196;28;20080;-72
2024/03/21 04:29:51;;;;;;;32.20;30.13;;;;;;;0.19;100.00;101559.41;5083557;28;20859;-74
2024/03/21 04:32:19;;;;;;;30.42;28.65;;;;;;;0.22;100.00;101567.03;5087252;28;20056;-73
2024/03/21 04:34:51;;;;;;;31.45;29.65;;;;;;;0.29;100.00;101556.94;5076560;28;20052;-73
2024/03/21 04:37:20;;;;;;;29.73;28.02;;;;;;;0.18;100.00;101555.97;5086179;28;20051;-73
2024/03/21 04:39:49;;;;;;;34.33;31.67;;;;;;;0.28;100.00;101548.25;5087568;28;20048;-73
2024/03/21 04:42:17;;;;;;;30.60;28.80;;;;;;;0.28;100.00;101552.66;5086620;28;20052;-73
2024/03/21 04:44:52;;;;;;;31.63;29.83;;;;;;;0.56;100.00;101559.19;5087662;28;20105;-73
2024/03/21 04:47:19;;;;;;;27.50;25.85;;;;;;;0.66;100.00;101555.72;5072869;28;20055;-73
2024/03/21 04:49:46;;;;;;;26.23;24.30;;;;;;;0.65;100.00;101548.81;5087551;28;20105;-73
2024/03/21 04:52:12;;;;;;;27.40;25.70;;;;;;;0.28;100.00;101566.56;5086181;28;20125;-72
2024/03/21 04:54:41;;;;;;;25.92;24.17;;;;;;;0.65;100.00;101582.00;5085871;28;20838;-73
2024/03/21 04:57:08;;;;;;;28.38;26.55;;;;;;;0.81;100.00;101581.59;5086125;28;20059;-72
2024/03/21 04:59:41;;;;;;;26.17;24.67;;;;;;;0.83;100.00;101600.63;5085815;28;20087;-74
2024/03/21 05:02:07;;;;;;;26.00;24.30;;;;;;;0.86;100.00;101608.25;5086818;28;20095;-73
2024/03/21 05:04:34;;;;;;;24.75;23.25;;;;;;;0.78;100.00;101610.63;5084337;28;20084;-73
2024/03/21 05:07:00;;;;;;;26.02;24.33;;;;;;;0.72;100.00;101591.00;5083375;28;20052;-73
2024/03/21 05:09:33;;;;;;;26.77;25.17;;;;;;;0.50;100.00;101589.25;5082919;28;20056;-73
2024/03/21 05:11:59;;;;;;;28.05;25.65;;;;;;;0.39;100.00;101587.47;5082349;28;20052;-73
2024/03/21 05:14:33;;;;;;;26.17;24.65;;;;;;;0.55;100.00;101584.50;5089879;28;20592;-73
2024/03/21 05:16:59;;;;;;;24.90;23.50;;;;;;;0.25;100.00;101558.13;5086446;28;20055;-73
2024/03/21 05:19:26;;;;;;;26.02;24.23;;;;;;;0.22;100.00;101549.56;5093214;28;20048;-72
2024/03/21 05:21:52;;;;;;;26.17;24.33;;;;;;;0.24;100.00;101544.19;5097794;28;20119;-72
2024/03/21 05:24:20;;;;;;;28.83;26.98;;;;;;;0.30;100.00;101542.91;5100488;28;20428;-73
2024/03/21 05:26:48;;;;;;;28.98;27.08;;;;;;;0.49;100.00;101555.41;5095032;28;20052;-70
2024/03/21 05:29:15;;;;;;;27.23;25.58;;;;;;;0.58;100.00;101560.72;5090202;28;20499;-70
2024/03/21 05:31:42;;;;;;;28.48;26.77;;;;;;;0.94;100.00;101563.16;5085464;28;20056;-73
2024/03/21 05:34:08;;;;;;;30.35;28.60;;;;;;;1.14;100.00;101560.59;5090420;28;20055;-73
2024/03/21 05:36:35;;;;;;;28.85;27.15;;;;;;;1.24;100.00;101555.47;5090252;28;20044;-73
2024/03/21 05:39:03;;;;;;;29.48;27.77;;;;;;;1.40;100.00;101560.28;5088571;28;20040;-72
2024/03/21 05:41:30;;;;;;;28.42;26.63;;;;;;;1.28;100.00;101566.53;5090394;28;20056;-73
2024/03/21 05:43:56;;;;;;;27.63;26.02;;;;;;;1.21;100.00;101566.19;5085183;28;20048;-73
2024/03/21 05:46:26;;;;;;;30.73;28.85;;;;;;;1.45;100.00;101557.28;5089207;28;20060;-73
2024/03/21 05:48:54;;;;;;;31.83;29.90;;;;;;;1.71;100.00;101565.59;5089605;28;20660;-72
2024/03/21 05:51:21;;;;;;;33.70;31.05;;;;;;;1.59;100.00;101572.69;5085603;28;20048;-71
2024/03/21 05:53:47;;;;;;;30.95;28.75;;;;;;;1.86;100.00;101576.59;5086455;28;20048;-70
2024/03/21 05:56:16;;;;;;;30.73;28.83;;;;;;;1.92;100.00;101576.91;5085688;28;20097;-69
2024/03/21 05:58:43;;;;;;;30.92;29.00;;;;;;;1.99;100.00;101579.84;5087235;28;20129;-70
2024/03/21 06:01:32;;;;;;;32.42;30.52;;;;;;;2.27;100.00;101573.13;5088477;28;20048;-70
2024/03/21 06:04:00;;;;;;;31.42;29.60;;;;;;;2.13;100.00;101568.22;5082413;28;20086;-72
2024/03/21 06:06:27;;;;;;;34.25;32.05;;;;;;;2.05;100.00;101574.09;5085080;28;20050;-70
2024/03/21 06:08:56;;;;;;;33.38;31.38;;;;;;;2.21;100.00;101573.63;5087784;28;20036;-70
2024/03/21 06:11:22;;;;;;;33.45;31.25;;;;;;;2.21;100.00;101573.63;5084862;28;20056;-71
2024/03/21 06:13:50;;;;;;;30.88;29.02;;;;;;;2.52;100.00;101575.28;5086350;28;20425;-71
2024/03/21 06:16:16;;;;;;;30.55;28.83;;;;;;;2.63;100.00;101569.13;5087304;28;20132;-71
2024/03/21 06:18:44;;;;;;;33.65;31.58;;;;;;;2.71;100.00;101555.31;5089343;28;20044;-71
2024/03/21 06:21:12;;;;;;;33.30;31.40;;;;;;;2.67;100.00;101553.94;5088231;28;20047;-70
2024/03/21 06:23:39;;;;;;;37.05;34.95;;;;;;;2.74;100.00;101555.06;5086933;28;20496;-70
2024/03/21 06:26:05;;;;;;;36.85;34.85;;;;;;;2.90;100.00;101552.72;5086788;28;20495;-72
2024/03/21 06:28:32;;;;;;;36.50;34.40;;;;;;;2.97;100.00;101558.28;5087725;28;20055;-72
2024/03/21 06:30:59;;;;;;;35.58;33.58;;;;;;;3.04;100.00;101555.94;5084324;28;20052;-72
2024/03/21 06:33:26;;;;;;;34.42;32.53;;;;;;;3.29;100.00;101560.66;5089784;28;20044;-72
2024/03/21 06:35:53;;;;;;;38.78;36.42;;;;;;;3.28;100.00;101553.75;5089300;28;20075;-74
2024/03/21 06:38:21;;;;;;;36.05;33.85;;;;;;;3.36;100.00;101546.03;5086686;28;20062;-72
2024/03/21 06:40:47;;;;;;;34.65;32.65;;;;;;;3.32;100.00;101546.44;5089506;28;20579;-71
2024/03/21 06:43:15;;;;;;;37.92;35.58;;;;;;;3.49;100.00;101542.28;5087228;28;20125;-72
2024/03/21 06:45:41;;;;;;;36.78;34.67;;;;;;;3.74;100.00;101548.75;5085088;28;20050;-72
2024/03/21 06:48:08;;;;;;;37.65;35.22;;;;;;;3.77;100.00;101558.97;5089019;28;20043;-72
2024/03/21 06:50:34;;;;;;;39.67;37.03;;;;;;;3.80;100.00;101566.59;5089097;28;20044;-72
2024/03/21 06:53:02;;;;;;;40.33;38.03;;;;;;;3.93;100.00;101561.84;5091511;28;20040;-72
2024/03/21 06:55:29;;;;;;;38.35;35.85;;;;;;;4.10;100.00;101573.44;5088862;28;20497;-73
2024/03/21 06:57:58;;;;;;;42.15;39.47;;;;;;;4.28;100.00;101565.63;5098639;28;20083;-72
2024/03/21 07:00:32;;;;;;;41.90;39.20;;;;;;;4.24;100.00;101570.34;5086826;28;20105;-72
2024/03/21 07:02:59;;;;;;;39.25;36.95;;;;;;;4.17;100.00;101569.25;5087811;28;20511;-73
2024/03/21 07:05:26;;;;;;;40.25;37.95;;;;;;;4.22;100.00;101572.28;5088760;28;20109;-73
2024/03/21 07:07:57;;;;;;;39.95;37.72;;;;;;;4.19;100.00;101579.66;5088315;28;20503;-73
2024/03/21 07:10:23;;;;;;;40.65;37.53;;;;;;;4.34;100.00;101588.72;5083223;28;20044;-73
2024/03/21 07:12:52;;;;;;;40.85;38.50;;;;;;;4.45;100.00;101583.28;5085651;28;20087;-73
2024/03/21 07:15:18;;;;;;;38.63;36.42;;;;;;;4.47;100.00;101565.53;5087812;28;20051;-73
2024/03/21 07:17:45;;;;;;;40.63;38.13;;;;;;;4.59;100.00;101569.66;5088792;28;20048;-73
2024/03/21 07:20:11;;;;;;;40.22;37.97;;;;;;;4.76;100.00;101562.78;5087622;28;20052;-73
2024/03/21 07:22:38;;;;;;;38.97;36.85;;;;;;;4.67;100.00;101568.94;5087925;28;20056;-73
2024/03/21 07:25:06;;;;;;;39.88;37.72;;;;;;;4.91;100.00;101564.94;5082924;28;20097;-73
2024/03/21 07:27:33;;;;;;;39.38;37.28;;;;;;;5.04;100.00;101573.28;5086754;28;20221;-73
2024/03/21 07:30:00;;;;;;;41.38;39.17;;;;;;;5.49;100.00;101583.75;5083691;28;20052;-73
2024/03/21 07:32:27;;;;;;;39.17;37.17;;;;;;;5.56;100.00;101576.06;5079855;28;20139;-72
2024/03/21 07:34:54;;;;;;;39.10;37.10;;;;;;;5.68;100.00;101566.13;5088073;28;20097;-72
2024/03/21 07:37:21;;;;;;;41.25;39.10;;;;;;;5.53;100.00;101560.56;5085370;28;20063;-72
2024/03/21 07:39:48;;;;;;;41.17;39.03;;;;;;;5.76;100.00;101557.47;5084927;28;20104;-73
2024/03/21 07:42:15;;;;;;;41.40;38.97;;;;;;;5.85;100.00;101559.16;5088073;28;20055;-73
2024/03/21 07:44:41;;;;;;;43.40;40.75;;;;;;;6.42;100.00;101557.72;5083748;28;20458;-72
2024/03/21 07:47:09;;;;;;;44.78;42.05;;;;;;;6.77;100.00;101558.50;5082063;28;20090;-72
2024/03/21 07:49:35;;;;;;;45.38;42.05;;;;;;;6.81;100.00;101557.22;5085391;28;20077;-73
2024/03/21 07:52:03;;;;;;;41.05;38.85;;;;;;;6.90;100.00;101555.41;5083955;28;20044;-72
2024/03/21 07:54:29;;;;;;;40.75;38.55;;;;;;;7.05;100.00;101550.31;5087271;28;20702;-72
2024/03/21 07:56:57;;;;;;;45.97;43.58;;;;;;;7.11;100.00;101549.69;5088493;28;20507;-72
2024/03/21 07:59:24;;;;;;;46.13;43.72;;;;;;;7.49;100.00;101542.09;5083568;28;20090;-73
2024/03/21 08:01:51;;;;;;;44.70;42.17;;;;;;;7.36;100.00;101533.84;5086898;28;20195;-73
2024/03/21 08:04:25;;;;;;;42.97;40.78;;;;;;;7.44;100.00;101539.94;5088157;28;20097;-72
2024/03/21 08:06:51;;;;;;;43.95;41.55;;;;;;;7.57;100.00;101532.34;5086572;28;20121;-73
2024/03/21 08:09:18;;;;;;;41.17;38.97;;;;;;;6.95;100.00;101529.34;5087642;28;20044;-72
2024/03/21 08:11:44;;;;;;;41.28;38.97;;;;;;;7.38;100.00;101530.03;5086862;28;20044;-72
2024/03/21 08:14:11;;;;;;;45.05;41.25;;;;;;;7.51;100.00;101540.94;5080947;28;20561;-73
2024/03/21 08:16:39;;;;;;;43.15;40.75;;;;;;;7.32;100.00;101539.47;5086872;28;20064;-73
2024/03/21 08:19:06;;;;;;;41.75;39.45;;;;;;;7.44;100.00;101536.47;5084548;28;20698;-73
2024/03/21 08:21:34;;;;;;;38.95;36.85;;;;;;;7.20;100.00;101524.06;5087663;28;20504;-73
2024/03/21 08:24:01;;;;;;;37.05;34.95;;;;;;;7.15;100.00;101516.66;5080947;28;20098;-72
2024/03/21 08:26:27;;;;;;;38.55;36.45;;;;;;;7.41;100.00;101513.84;5087058;28;20171;-72
2024/03/21 08:28:54;;;;;;;39.78;37.58;;;;;;;7.14;100.00;101509.72;5085250;28;20147;-72
2024/03/21 08:31:21;;;;;;;36.80;34.60;;;;;;;7.15;100.00;101505.28;5082265;28;20793;-72
2024/03/21 08:33:48;;;;;;;34.55;32.65;;;;;;;7.13;100.00;101504.59;5083062;28;20051;-72
2024/03/21 08:36:14;;;;;;;38.20;35.90;;;;;;;7.42;100.00;101497.00;5082924;28;20056;-72
2024/03/21 08:38:42;;;;;;;35.95;33.85;;;;;;;7.48;100.00;101506.91;5079832;28;20580;-72
2024/03/21 08:41:09;;;;;;;35.53;33.63;;;;;;;7.77;100.00;101513.50;5087183;28;20063;-72
2024/03/21 08:43:36;;;;;;;35.53;33.40;;;;;;;7.44;100.00;101510.06;5086969;28;20048;-73
2024/03/21 08:46:03;;;;;;;34.67;32.78;;;;;;;7.58;100.00;101512.84;5087478;28;20089;-73
2024/03/21 08:48:30;;;;;;;36.55;34.50;;;;;;;7.56;100.00;101514.00;5087698;28;20044;-71
2024/03/21 08:50:56;;;;;;;32.63;30.73;;;;;;;7.73;100.00;101523.56;5091225;28;20048;-72
2024/03/21 08:53:33;;;;;;;38.40;36.40;;;;;;;7.89;100.00;101530.66;5089537;28;20478;-72
2024/03/21 08:56:07;;;;;;;39.25;37.15;;;;;;;7.90;100.00;101531.50;5090400;28;20036;-72
2024/03/21 08:58:34;;;;;;;36.30;34.30;;;;;;;7.85;100.00;101520.59;5088799;28;20046;-72
2024/03/21 09:01:00;;;;;;;37.20;35.20;;;;;;;7.92;100.00;101511.81;5090287;28;20124;-72
2024/03/21 09:03:30;;;;;;;38.83;36.83;;;;;;;7.79;100.00;101509.69;5084220;28;20048;-70
2024/03/21 09:05:57;;;;;;;37.95;36.03;;;;;;;7.98;100.00;101489.13;5088164;28;20706;-72
2024/03/21 09:08:24;;;;;;;40.10;38.00;;;;;;;8.13;100.00;101486.63;5088694;28;20147;-72
2024/03/21 09:10:50;;;;;;;42.42;39.63;;;;;;;9.09;100.00;101473.03;5087686;28;20511;-72
2024/03/21 09:13:19;;;;;;;37.95;35.75;;;;;;;9.94;100.00;101463.13;5085349;28;20083;-72
2024/03/21 09:15:45;;;;;;;43.70;41.40;;;;;;;10.00;100.00;101457.06;5088163;28;20047;-72
2024/03/21 09:18:12;;;;;;;42.00;39.50;;;;;;;10.38;100.00;101454.28;5090864;28;20055;-73
2024/03/21 09:20:38;;;;;;;39.60;37.40;;;;;;;10.43;100.00;101451.91;5090116;28;20105;-72
2024/03/21 09:23:05;;;;;;;42.08;39.50;;;;;;;10.52;100.00;101451.59;5086329;28;20054;-72
2024/03/21 09:25:31;;;;;;;45.30;43.00;;;;;;;9.92;100.00;101452.66;5091221;28;20097;-72
2024/03/21 09:27:58;;;;;;;43.97;41.38;;;;;;;10.21;100.00;101453.66;5092244;28;20044;-72
2024/03/21 09:30:26;;;;;;;43.95;41.35;;;;;;;10.92;100.00;101475.09;5090151;28;20083;-72
2024/03/21 09:32:53;;;;;;;42.78;40.38;;;;;;;10.28;100.00;101489.91;5085671;28;20127;-72
2024/03/21 09:35:19;;;;;;;39.35;37.25;;;;;;;11.77;100.00;101494.63;5085960;28;20055;-71
2024/03/21 09:37:46;;;;;;;44.15;41.75;;;;;;;11.43;100.00;101504.19;5089822;28;20044;-73
2024/03/21 09:40:13;;;;;;;45.80;43.30;;;;;;;11.07;100.00;101509.59;5090494;28;20782;-70
2024/03/21 09:42:40;;;;;;;39.00;36.85;;;;;;;11.53;100.00;101515.34;5089083;28;20044;-71
2024/03/21 09:45:12;;;;;;;40.10;36.63;;;;;;;10.84;100.00;101518.59;5090772;28;20800;-73
2024/03/21 09:47:43;;;;;;;40.15;37.72;;;;;;;11.02;100.00;101523.47;5086666;28;20052;-73
2024/03/21 09:50:11;;;;;;;37.85;35.55;;;;;;;10.85;100.00;101530.03;5084475;28;20109;-71
2024/03/21 09:52:39;;;;;;;34.50;32.30;;;;;;;10.55;100.00;101530.91;5086473;28;20046;-73
2024/03/21 09:55:12;;;;;;;38.50;36.20;;;;;;;10.15;100.00;101524.25;5089453;28;20105;-72
2024/03/21 09:57:40;;;;;;;39.90;37.60;;;;;;;11.08;100.00;101520.06;5089719;28;20079;-73
2024/03/21 10:00:09;;;;;;;40.10;37.80;;;;;;;11.20;100.00;101523.03;5088426;28;20044;-71
2024/03/21 10:02:37;;;;;;;38.72;36.53;;;;;;;11.15;100.00;101525.44;5087996;28;20052;-72
2024/03/21 10:05:08;;;;;;;36.13;33.92;;;;;;;11.39;100.00;101527.72;5089974;28;20428;-74
2024/03/21 10:07:39;;;;;;;37.35;35.25;;;;;;;12.76;100.00;101528.94;5090515;28;20109;-73
2024/03/21 10:10:06;;;;;;;38.13;35.92;;;;;;;12.69;100.00;101530.78;5087650;28;20177;-71
2024/03/21 10:12:33;;;;;;;36.72;34.72;;;;;;;12.16;100.00;101526.03;5088808;28;20063;-70
2024/03/21 10:14:59;;;;;;;37.55;35.55;;;;;;;11.58;100.00;101520.06;5089742;28;20468;-70
2024/03/21 10:17:27;;;;;;;34.17;32.30;;;;;;;11.21;100.00;101522.03;5089423;28;20059;-72
2024/03/21 10:19:54;;;;;;;32.92;31.13;;;;;;;11.25;100.00;101512.63;5082031;28;20790;-72
2024/03/21 10:22:24;;;;;;;37.00;35.00;;;;;;;10.88;100.00;101509.22;5087763;28;20059;-73
2024/03/21 10:24:53;;;;;;;35.75;33.83;;;;;;;10.61;100.00;101508.09;5088188;28;20044;-74
2024/03/21 10:27:22;;;;;;;33.75;31.83;;;;;;;10.02;100.00;101506.31;5087102;28;20128;-71
2024/03/21 10:29:49;;;;;;;35.67;33.58;;;;;;;9.62;100.00;101503.06;5089766;28;20439;-71
2024/03/21 10:32:18;;;;;;;34.70;32.70;;;;;;;9.52;100.00;101497.19;5084738;28;20797;-71
2024/03/21 10:34:48;;;;;;;40.05;37.83;;;;;;;9.95;100.00;101494.75;5089278;28;20050;-71
2024/03/21 10:37:16;;;;;;;39.58;37.08;;;;;;;10.96;100.00;101487.84;5089432;28;20055;-71
2024/03/21 10:39:43;;;;;;;36.40;34.20;;;;;;;10.95;100.00;101488.00;5088250;28;20106;-71
2024/03/21 10:42:22;;;;;;;37.00;34.70;;;;;;;10.76;100.00;101468.22;5088129;28;20048;-72
2024/03/21 10:44:52;;;;;;;36.20;33.97;;;;;;;11.36;100.00;101482.88;5088557;28;20044;-72
2024/03/21 10:47:27;;;;;;;35.15;32.95;;;;;;;11.31;100.00;101474.63;5089626;28;20109;-72
2024/03/21 10:49:54;;;;;;;35.35;33.05;;;;;;;11.59;100.00;101473.81;5089039;28;20052;-72
2024/03/21 10:52:28;;;;;;;37.00;34.70;;;;;;;11.93;100.00;101470.41;5087696;28;20059;-71
2024/03/21 10:54:58;;;;;;;39.20;36.70;;;;;;;11.73;100.00;101467.59;5087692;28;20570;-73
2024/03/21 10:57:27;;;;;;;36.55;34.15;;;;;;;11.65;100.00;101467.75;5084930;28;20432;-72
2024/03/21 11:00:06;;;;;;;35.90;33.50;;;;;;;11.82;100.00;101457.59;5087448;28;20056;-73
2024/03/21 11:02:38;;;;;;;34.90;32.70;;;;;;;12.79;100.00;101449.38;5086606;28;20051;-72
2024/03/21 11:05:09;;;;;;;36.78;34.38;;;;;;;11.37;100.00;101460.56;5087951;28;20052;-73
2024/03/21 11:07:37;;;;;;;36.10;33.90;;;;;;;11.70;100.00;101460.81;5087400;28;20516;-73
2024/03/21 11:10:07;;;;;;;37.03;34.80;;;;;;;11.77;100.00;101452.88;5085121;28;20052;-73
2024/03/21 11:12:35;;;;;;;38.70;36.30;;;;;;;11.69;100.00;101450.38;5087477;28;20113;-71